Suite Judy — WDG2470 — position and weather

sailwx.info

Track history (hours):
 
Tides and Currents Weather Stations Pressure Air Temp Water Temp Dewpoint Dewpoint Depression Visibility Wind Speed Wind Dir Waves Ship Positions

Suite Judy

Owner: Suite Judy LLC, Cobbs Creek, VA. More information available from US FCC via Universal Licensing System.

Last reported at 2017-Nov-14 13:27 UTC. Time now 2017-Dec-17 15:46 UTC.
Position N 34°43' W 076°49'.
Warning: this ship's position is 33 days out of date.

Length 13 m; draft 1.6 m.

Type: Ship. MMSI: 367515970.

Date/timePositionNaut miles runAvg speedWind from/ knotsBaromVisibWave heightAir tempDewpointWater temp
2017-Nov-14 13:27N 34°43' W 076°49'3 6.8
2017-Nov-14 13:01N 34°43' W 076°46'3 6.5
2017-Nov-14 12:31N 34°43' W 076°42'  
2017-Nov-11 16:18N 36°43' W 076°14'1 2.1
2017-Nov-11 16:00N 36°43' W 076°15'0 0.5
2017-Nov-11 15:27N 36°43' W 076°15'0 0.7
2017-Nov-11 15:00N 36°44' W 076°15'3 5.0
2017-Nov-11 14:30N 36°45' W 076°18'3 5.4
2017-Nov-11 14:00N 36°48' W 076°18'3 5.2
2017-Nov-11 13:31N 36°50' W 076°18'0 0.0
2017-Nov-10 19:55N 36°50' W 076°18'1 3.5
2017-Nov-10 19:30N 36°52' W 076°19'4 7.7
2017-Nov-10 18:57N 36°56' W 076°20'3 7.9
2017-Nov-10 18:30N 36°59' W 076°19'4 8.5
2017-Nov-10 18:00N 37°02' W 076°15'4 7.8
2017-Nov-10 17:30N 37°06' W 076°15'4 7.5
2017-Nov-10 17:00N 37°10' W 076°15'  
Track history (hours):
 
Tides and Currents Weather Stations Pressure Air Temp Water Temp Dewpoint Dewpoint Depression Visibility Wind Speed Wind Dir Waves Ship Positions

Suite Judy

Owner: Suite Judy LLC, Cobbs Creek, VA. More information available from US FCC via Universal Licensing System.

Last reported at 2017-Nov-14 13:27 UTC. Time now 2017-Dec-17 15:46 UTC.
Position N 34°43' W 076°49'.
Warning: this ship's position is 33 days out of date.

Length 13 m; draft 1.6 m.

Type: Ship. MMSI: 367515970.

Date/timePositionNaut miles runAvg speedWind from/ knotsBaromVisibWave heightAir tempDewpointWater temp
2017-Nov-14 13:27N 34°43' W 076°49'3 6.8
2017-Nov-14 13:01N 34°43' W 076°46'3 6.5
2017-Nov-14 12:31N 34°43' W 076°42'  
2017-Nov-11 16:18N 36°43' W 076°14'1 2.1
2017-Nov-11 16:00N 36°43' W 076°15'0 0.5
2017-Nov-11 15:27N 36°43' W 076°15'0 0.7
2017-Nov-11 15:00N 36°44' W 076°15'3 5.0
2017-Nov-11 14:30N 36°45' W 076°18'3 5.4
2017-Nov-11 14:00N 36°48' W 076°18'3 5.2
2017-Nov-11 13:31N 36°50' W 076°18'0 0.0
2017-Nov-10 19:55N 36°50' W 076°18'1 3.5
2017-Nov-10 19:30N 36°52' W 076°19'4 7.7
2017-Nov-10 18:57N 36°56' W 076°20'3 7.9
2017-Nov-10 18:30N 36°59' W 076°19'4 8.5
2017-Nov-10 18:00N 37°02' W 076°15'4 7.8
2017-Nov-10 17:30N 37°06' W 076°15'4 7.5
2017-Nov-10 17:00N 37°10' W 076°15'  

Dump ship's entire track history